createdAt,value
2018-09-06T00:01:37.384Z,100882.39
2018-09-06T00:04:05.603Z,100882.58
2018-09-06T00:06:33.820Z,100879.38
2018-09-06T00:09:02.032Z,100879.89
2018-09-06T00:11:30.240Z,100875.73
2018-09-06T00:13:58.472Z,100874.06
2018-09-06T00:16:26.668Z,100868.08
2018-09-06T00:18:54.855Z,100865.91
2018-09-06T00:21:23.082Z,100871.80
2018-09-06T00:23:51.311Z,100874.88
2018-09-06T00:26:19.579Z,100868.34
2018-09-06T00:28:47.864Z,100871.03
2018-09-06T00:31:16.056Z,100865.85
2018-09-06T00:33:44.337Z,100865.85
2018-09-06T00:36:12.614Z,100863.36
2018-09-06T00:38:40.876Z,100856.83
2018-09-06T00:41:09.076Z,100857.53
2018-09-06T00:43:37.375Z,100855.27
2018-09-06T00:46:05.607Z,100858.66
2018-09-06T00:48:33.796Z,100853.28
2018-09-06T00:51:02.131Z,100848.22
2018-09-06T00:53:30.330Z,100849.56
2018-09-06T00:55:58.553Z,100849.25
2018-09-06T00:58:26.836Z,100849.56
2018-09-06T01:00:55.066Z,100850.91
2018-09-06T01:03:23.354Z,100849.56
2018-09-06T01:05:51.603Z,100851.23
2018-09-06T01:08:19.819Z,100860.64
2018-09-06T01:10:48.003Z,100862.50
2018-09-06T01:13:16.266Z,100866.02
2018-09-06T01:15:44.568Z,100880.80
2018-09-06T01:18:12.735Z,100875.30
2018-09-06T01:20:40.971Z,100878.56
2018-09-06T01:23:09.256Z,100867.56
2018-09-06T01:25:42.894Z,100865.06
2018-09-06T01:28:11.103Z,100863.82
2018-09-06T01:30:39.303Z,100870.73
2018-09-06T01:33:07.608Z,100862.03
2018-09-06T01:35:35.851Z,100868.11
2018-09-06T01:38:04.079Z,100872.91
2018-09-06T01:40:32.407Z,100877.54
2018-09-06T01:43:00.627Z,100874.01
2018-09-06T01:45:28.863Z,100887.95
2018-09-06T01:47:57.159Z,100890.70
2018-09-06T01:50:25.378Z,100904.83
2018-09-06T01:52:53.616Z,100902.91
2018-09-06T01:55:21.840Z,100914.02
2018-09-06T01:57:50.036Z,100910.91
2018-09-06T02:00:18.308Z,100904.81
2018-09-06T02:02:46.641Z,100907.58
2018-09-06T02:05:18.982Z,100900.27
2018-09-06T02:07:47.293Z,100905.00
2018-09-06T02:10:15.545Z,100898.66
2018-09-06T02:12:43.737Z,100889.27
2018-09-06T02:15:11.926Z,100879.36
2018-09-06T02:17:40.106Z,100880.19
2018-09-06T02:20:08.349Z,100879.17
2018-09-06T02:22:36.686Z,100881.86
2018-09-06T02:25:05.008Z,100874.31
2018-09-06T02:27:33.227Z,100878.15
2018-09-06T02:30:01.421Z,100863.38
2018-09-06T02:32:29.656Z,100872.27
2018-09-06T02:34:57.919Z,100864.02
2018-09-06T02:37:26.174Z,100871.89
2018-09-06T02:39:54.372Z,100875.41
2018-09-06T02:42:22.631Z,100880.97
2018-09-06T02:44:50.840Z,100875.14
2018-09-06T02:47:19.098Z,100869.83
2018-09-06T02:49:52.795Z,100868.89
2018-09-06T02:52:21.032Z,100860.19
2018-09-06T02:54:49.227Z,100849.26
2018-09-06T02:57:17.586Z,100839.27
2018-09-06T02:59:47.125Z,100828.80
2018-09-06T03:02:15.315Z,100821.52
2018-09-06T03:04:43.614Z,100817.63
2018-09-06T03:07:11.823Z,100820.30
2018-09-06T03:09:40.050Z,100809.86
2018-09-06T03:12:09.287Z,100808.83
2018-09-06T03:14:37.557Z,100808.33
2018-09-06T03:17:05.808Z,100809.16
2018-09-06T03:19:34.011Z,100813.69
2018-09-06T03:22:02.222Z,100818.23
2018-09-06T03:24:30.423Z,100822.58
2018-09-06T03:26:58.703Z,100823.92
2018-09-06T03:29:26.953Z,100828.97
2018-09-06T03:31:55.137Z,100835.17
2018-09-06T03:34:23.326Z,100836.01
2018-09-06T03:36:51.543Z,100842.41
2018-09-06T03:39:19.770Z,100849.02
2018-09-06T03:41:47.967Z,100866.33
2018-09-06T03:44:16.175Z,100868.75
2018-09-06T03:46:44.417Z,100868.98
2018-09-06T03:49:12.671Z,100872.08
2018-09-06T03:51:40.840Z,100874.81
2018-09-06T03:54:09.055Z,100854.36
2018-09-06T03:56:37.271Z,100858.20
2018-09-06T03:59:05.496Z,100875.97
2018-09-06T04:01:33.764Z,100874.13
2018-09-06T04:04:01.995Z,100881.16
2018-09-06T04:06:30.241Z,100871.95
2018-09-06T04:08:58.443Z,100861.91
2018-09-06T04:11:26.646Z,100854.55
2018-09-06T04:13:54.915Z,100853.20
2018-09-06T04:16:23.240Z,100857.28
2018-09-06T04:18:51.541Z,100851.67
2018-09-06T04:21:19.740Z,100857.73
2018-09-06T04:23:47.973Z,100854.41
2018-09-06T04:26:16.223Z,100855.42
2018-09-06T04:28:44.440Z,100860.14
2018-09-06T04:31:12.679Z,100857.51
2018-09-06T04:33:40.882Z,100860.70
2018-09-06T04:36:09.128Z,100852.87
2018-09-06T04:38:37.334Z,100859.58
2018-09-06T04:41:05.607Z,100862.95
2018-09-06T04:43:33.952Z,100845.70
2018-09-06T04:46:02.087Z,100842.66
2018-09-06T04:48:30.280Z,100836.64
2018-09-06T04:50:58.519Z,100832.48
2018-09-06T04:53:26.731Z,100841.55
2018-09-06T04:55:54.971Z,100840.06
2018-09-06T04:58:23.372Z,100840.98
2018-09-06T05:00:51.564Z,100846.02
2018-09-06T05:03:19.776Z,100842.32
2018-09-06T05:05:48.083Z,100842.18
2018-09-06T05:08:16.496Z,100832.14
2018-09-06T05:10:45.041Z,100834.36
2018-09-06T05:13:13.291Z,100832.70
2018-09-06T05:15:41.515Z,100841.77
2018-09-06T05:18:09.739Z,100838.11
2018-09-06T05:20:38.130Z,100841.33
2018-09-06T05:23:06.341Z,100832.30
2018-09-06T05:25:34.813Z,100830.18
2018-09-06T05:28:02.997Z,100830.36
2018-09-06T05:30:31.194Z,100830.22
2018-09-06T05:32:59.486Z,100826.38
2018-09-06T05:35:27.673Z,100820.83
2018-09-06T05:37:55.884Z,100806.09
2018-09-06T05:40:24.129Z,100806.09
2018-09-06T05:42:52.338Z,100808.77
2018-09-06T05:45:20.622Z,100812.97
2018-09-06T05:47:54.290Z,100805.44
2018-09-06T05:50:22.518Z,100812.14
2018-09-06T05:52:51.118Z,100816.67
2018-09-06T05:55:19.605Z,100833.27
2018-09-06T05:57:47.896Z,100844.53
2018-09-06T06:00:21.404Z,100850.00
2018-09-06T06:02:50.667Z,100834.61
2018-09-06T06:05:18.918Z,100828.73
2018-09-06T06:07:58.510Z,100820.19
2018-09-06T06:10:26.775Z,100820.91
2018-09-06T06:12:55.265Z,100826.89
2018-09-06T06:15:23.564Z,100827.03
2018-09-06T06:17:51.811Z,100819.17
2018-09-06T06:20:20.142Z,100806.09
2018-09-06T06:22:48.342Z,100797.20
2018-09-06T06:25:16.531Z,100799.38
2018-09-06T06:27:44.797Z,100791.02
2018-09-06T06:30:13.147Z,100801.73
2018-09-06T06:32:41.473Z,100800.91
2018-09-06T06:35:09.682Z,100813.80
2018-09-06T06:37:37.967Z,100820.83
2018-09-06T06:40:06.254Z,100816.81
2018-09-06T06:42:34.921Z,100821.48
2018-09-06T06:45:03.172Z,100821.81
2018-09-06T06:47:31.410Z,100815.94
2018-09-06T06:49:59.594Z,100821.11
2018-09-06T06:52:27.826Z,100822.27
2018-09-06T06:54:56.093Z,100822.09
2018-09-06T06:57:24.359Z,100827.78
2018-09-06T06:59:52.546Z,100828.10
2018-09-06T07:02:20.781Z,100836.15
2018-09-06T07:04:49.002Z,100838.83
2018-09-06T07:07:17.325Z,100836.84
2018-09-06T07:09:45.513Z,100839.20
2018-09-06T07:12:13.714Z,100838.88
2018-09-06T07:14:41.918Z,100842.06
2018-09-06T07:17:10.106Z,100839.20
2018-09-06T07:19:38.314Z,100828.80
2018-09-06T07:22:06.531Z,100831.48
2018-09-06T07:24:34.767Z,100822.09
2018-09-06T07:27:03.051Z,100812.05
2018-09-06T07:29:31.262Z,100803.17
2018-09-06T07:31:59.574Z,100804.01
2018-09-06T07:34:27.765Z,100808.86
2018-09-06T07:36:55.969Z,100810.02
2018-09-06T07:39:24.151Z,100819.66
2018-09-06T07:41:52.388Z,100816.61
2018-09-06T07:44:21.422Z,100815.59
2018-09-06T07:46:49.702Z,100815.91
2018-09-06T07:49:17.919Z,100820.58
2018-09-06T07:51:46.138Z,100823.22
2018-09-06T07:54:14.338Z,100820.86
2018-09-06T07:56:42.603Z,100818.17
2018-09-06T07:59:10.933Z,100812.16
2018-09-06T08:01:39.209Z,100813.69
2018-09-06T08:04:07.340Z,100819.24
2018-09-06T08:06:35.515Z,100816.42
2018-09-06T08:09:05.410Z,100818.59
2018-09-06T08:11:33.631Z,100812.07
2018-09-06T08:14:01.856Z,100818.92
2018-09-06T08:16:30.054Z,100812.53
2018-09-06T08:18:58.335Z,100817.20
2018-09-06T08:21:26.452Z,100811.84
2018-09-06T08:23:54.675Z,100815.86
2018-09-06T08:26:22.882Z,100819.38
2018-09-06T08:28:51.111Z,100829.27
2018-09-06T08:31:19.300Z,100831.45
2018-09-06T08:33:47.559Z,100828.62
2018-09-06T08:36:15.893Z,100830.16
2018-09-06T08:38:44.318Z,100834.36
2018-09-06T08:41:12.474Z,100838.06
2018-09-06T08:43:40.654Z,100828.02
2018-09-06T08:46:08.971Z,100840.09
2018-09-06T08:48:37.272Z,100844.44
2018-09-06T08:51:06.449Z,100848.80
2018-09-06T08:53:34.706Z,100842.09
2018-09-06T08:56:03.187Z,100840.09
2018-09-06T08:58:31.497Z,100843.42
2018-09-06T09:01:05.050Z,100845.09
2018-09-06T09:03:33.347Z,100845.73
2018-09-06T09:06:01.603Z,100842.05
2018-09-06T09:08:29.891Z,100841.86
2018-09-06T09:10:58.044Z,100840.01
2018-09-06T09:13:26.398Z,100841.67
2018-09-06T09:15:54.664Z,100837.79
2018-09-06T09:18:22.926Z,100844.60
2018-09-06T09:20:51.186Z,100843.40
2018-09-06T09:23:19.359Z,100838.81
2018-09-06T09:25:47.660Z,100835.95
2018-09-06T09:28:15.881Z,100834.27
2018-09-06T09:30:44.229Z,100832.74
2018-09-06T09:33:12.420Z,100830.67
2018-09-06T09:35:40.630Z,100821.92
2018-09-06T09:38:09.024Z,100823.55
2018-09-06T09:40:37.298Z,100823.67
2018-09-06T09:43:05.842Z,100824.00
2018-09-06T09:45:34.054Z,100819.14
2018-09-06T09:48:02.238Z,100814.42
2018-09-06T09:52:57.966Z,100812.62
2018-09-06T09:55:26.154Z,100816.59
2018-09-06T09:57:54.345Z,100822.09
2018-09-06T10:00:27.767Z,100819.59
2018-09-06T10:03:01.316Z,100823.63
2018-09-06T10:05:34.914Z,100825.61
2018-09-06T10:08:07.354Z,100818.20
2018-09-06T10:10:35.637Z,100813.25
2018-09-06T10:13:03.863Z,100812.36
2018-09-06T10:15:32.147Z,100809.48
2018-09-06T10:18:00.481Z,100809.67
2018-09-06T10:20:28.683Z,100808.07
2018-09-06T10:22:56.999Z,100807.14
2018-09-06T10:25:25.247Z,100809.17
2018-09-06T10:27:53.653Z,100811.73
2018-09-06T10:30:22.399Z,100816.97
2018-09-06T10:32:50.743Z,100818.36
2018-09-06T10:35:19.046Z,100816.32
2018-09-06T10:37:47.316Z,100821.92
2018-09-06T10:40:15.513Z,100817.02
2018-09-06T10:42:43.799Z,100821.23
2018-09-06T10:45:12.071Z,100811.06
2018-09-06T10:47:40.420Z,100807.77
2018-09-06T10:50:08.581Z,100808.38
2018-09-06T10:52:36.956Z,100799.31
2018-09-06T10:55:05.244Z,100803.98
2018-09-06T10:57:33.484Z,100791.22
2018-09-06T11:00:01.678Z,100794.20
2018-09-06T11:02:29.927Z,100796.63
2018-09-06T11:04:58.207Z,100789.34
2018-09-06T11:07:26.468Z,100776.52
2018-09-06T11:09:54.676Z,100783.59
2018-09-06T11:12:22.919Z,100781.83
2018-09-06T11:14:51.127Z,100788.90
2018-09-06T11:17:19.380Z,100783.09
2018-09-06T11:19:47.708Z,100787.99
2018-09-06T11:22:16.056Z,100786.45
2018-09-06T11:24:44.134Z,100785.63
2018-09-06T11:27:12.322Z,100787.29
2018-09-06T11:29:40.511Z,100786.33
2018-09-06T11:32:08.768Z,100785.17
2018-09-06T11:34:37.091Z,100780.41
2018-09-06T11:37:05.393Z,100784.49
2018-09-06T11:39:33.603Z,100784.23
2018-09-06T11:42:01.854Z,100784.00
2018-09-06T11:44:30.149Z,100784.00
2018-09-06T11:46:59.064Z,100789.37
2018-09-06T11:49:27.218Z,100784.70
2018-09-06T11:51:55.459Z,100781.05
2018-09-06T11:54:23.703Z,100781.23
2018-09-06T11:56:52.066Z,100778.73
2018-09-06T11:59:20.279Z,100781.94
2018-09-06T12:01:48.582Z,100782.05
2018-09-06T12:04:17.105Z,100784.46
2018-09-06T12:06:45.315Z,100782.29
2018-09-06T12:09:13.496Z,100780.81
2018-09-06T12:11:41.841Z,100782.20
2018-09-06T12:14:10.071Z,100775.36
2018-09-06T12:16:38.262Z,100773.00
2018-09-06T12:19:06.459Z,100769.94
2018-09-06T12:21:34.895Z,100773.41
2018-09-06T12:24:03.462Z,100771.42
2018-09-06T12:26:31.773Z,100778.45
2018-09-06T12:29:00.017Z,100768.55
2018-09-06T12:31:28.188Z,100764.42
2018-09-06T12:33:56.521Z,100765.09
2018-09-06T12:36:24.811Z,100769.23
2018-09-06T12:38:53.139Z,100767.09
2018-09-06T12:41:21.354Z,100762.25
2018-09-06T12:43:49.538Z,100768.62
2018-09-06T12:46:17.746Z,100760.62
2018-09-06T12:48:46.044Z,100750.75
2018-09-06T12:51:14.323Z,100751.38
2018-09-06T12:53:42.607Z,100752.53
2018-09-06T12:56:10.831Z,100751.64
2018-09-06T12:58:39.123Z,100739.16
2018-09-06T13:01:07.464Z,100735.37
2018-09-06T13:03:35.799Z,100735.63
2018-09-06T13:06:04.050Z,100736.36
2018-09-06T13:08:32.331Z,100729.77
2018-09-06T13:11:00.558Z,100726.56
2018-09-06T13:13:28.775Z,100721.31
2018-09-06T13:15:56.963Z,100723.22
2018-09-06T13:18:25.202Z,100726.12
2018-09-06T13:20:53.415Z,100725.41
2018-09-06T13:23:21.658Z,100721.57
2018-09-06T13:25:49.903Z,100715.36
2018-09-06T13:28:18.141Z,100724.06
2018-09-06T13:30:46.381Z,100725.09
2018-09-06T13:33:14.689Z,100718.69
2018-09-06T13:35:42.979Z,100713.31
2018-09-06T13:38:11.115Z,100714.58
2018-09-06T13:40:39.363Z,100711.70
2018-09-06T13:43:07.563Z,100708.86
2018-09-06T13:45:35.817Z,100705.37
2018-09-06T13:48:04.038Z,100705.27
2018-09-06T13:50:32.295Z,100700.84
2018-09-06T13:53:00.667Z,100700.00
2018-09-06T13:55:29.129Z,100703.52
2018-09-06T13:57:57.358Z,100702.38
2018-09-06T14:00:25.547Z,100705.90
2018-09-06T14:02:53.727Z,100695.66
2018-09-06T14:05:21.931Z,100701.55
2018-09-06T14:07:50.175Z,100695.85
2018-09-06T14:10:18.397Z,100700.72
2018-09-06T14:12:46.593Z,100697.95
2018-09-06T14:15:14.858Z,100697.15
2018-09-06T14:17:43.112Z,100688.08
2018-09-06T14:20:11.399Z,100680.23
2018-09-06T14:22:39.647Z,100680.63
2018-09-06T14:25:07.855Z,100687.91
2018-09-06T14:27:36.079Z,100686.56
2018-09-06T14:30:04.382Z,100684.78
2018-09-06T14:32:32.621Z,100675.48
2018-09-06T14:35:00.850Z,100677.34
2018-09-06T14:37:29.020Z,100668.13
2018-09-06T14:39:57.249Z,100663.95
2018-09-06T14:42:25.452Z,100649.73
2018-09-06T14:44:53.687Z,100653.97
2018-09-06T14:47:21.892Z,100654.25
2018-09-06T14:49:50.143Z,100659.52
2018-09-06T14:52:18.426Z,100656.91
2018-09-06T14:54:46.747Z,100650.49
2018-09-06T14:57:15.017Z,100647.69
2018-09-06T14:59:43.271Z,100645.28
2018-09-06T15:02:11.474Z,100647.25
2018-09-06T15:04:39.691Z,100645.34
2018-09-06T15:07:07.979Z,100637.76
2018-09-06T15:09:36.218Z,100636.52
2018-09-06T15:12:05.912Z,100636.52
2018-09-06T15:14:34.216Z,100642.53
2018-09-06T15:17:02.487Z,100641.78
2018-09-06T15:19:30.796Z,100632.33
2018-09-06T15:22:02.598Z,100632.52
2018-09-06T15:24:30.772Z,100633.94
2018-09-06T15:26:59.039Z,100626.27
2018-09-06T15:29:27.255Z,100623.59
2018-09-06T15:31:55.476Z,100614.30
2018-09-06T15:34:24.414Z,100610.20
2018-09-06T15:36:52.662Z,100615.34
2018-09-06T15:39:20.884Z,100617.05
2018-09-06T15:41:49.102Z,100620.92
2018-09-06T15:44:17.328Z,100612.69
2018-09-06T15:46:45.605Z,100619.55
2018-09-06T15:49:13.899Z,100610.69
2018-09-06T15:51:42.123Z,100617.83
2018-09-06T15:54:10.402Z,100624.67
2018-09-06T15:56:38.586Z,100617.95
2018-09-06T15:59:07.147Z,100615.12
2018-09-06T16:01:35.478Z,100614.39
2018-09-06T16:04:03.689Z,100604.14
2018-09-06T16:06:31.901Z,100603.02
2018-09-06T16:09:00.120Z,100596.31
2018-09-06T16:11:28.323Z,100592.47
2018-09-06T16:13:56.552Z,100594.97
2018-09-06T16:16:24.752Z,100602.51
2018-09-06T16:18:52.966Z,100599.03
2018-09-06T16:21:21.150Z,100601.19
2018-09-06T16:23:49.347Z,100607.80
2018-09-06T16:26:17.543Z,100609.11
2018-09-06T16:28:45.787Z,100615.30
2018-09-06T16:31:14.051Z,100611.36
2018-09-06T16:33:42.346Z,100618.55
2018-09-06T16:36:10.568Z,100615.34
2018-09-06T16:38:38.775Z,100609.73
2018-09-06T16:41:06.978Z,100609.29
2018-09-06T16:43:35.311Z,100613.91
2018-09-06T16:46:03.551Z,100617.14
2018-09-06T16:48:31.742Z,100605.93
2018-09-06T16:50:59.974Z,100609.33
2018-09-06T16:53:28.185Z,100609.40
2018-09-06T16:55:56.463Z,100616.09
2018-09-06T16:58:24.701Z,100624.73
2018-09-06T17:00:53.034Z,100623.91
2018-09-06T17:03:21.179Z,100622.12
2018-09-06T17:05:49.367Z,100626.55
2018-09-06T17:08:17.618Z,100623.22
2018-09-06T17:10:45.807Z,100625.91
2018-09-06T17:13:14.030Z,100626.64
2018-09-06T17:15:42.252Z,100626.52
2018-09-06T17:18:10.449Z,100629.59
2018-09-06T17:20:38.672Z,100628.95
2018-09-06T17:23:06.981Z,100634.52
2018-09-06T17:25:35.178Z,100637.40
2018-09-06T17:28:06.967Z,100640.50
2018-09-06T17:30:35.270Z,100637.37
2018-09-06T17:33:03.550Z,100634.69
2018-09-06T17:35:31.717Z,100643.77
2018-09-06T17:37:59.894Z,100642.09
2018-09-06T17:40:28.216Z,100644.98
2018-09-06T17:42:56.575Z,100645.48
2018-09-06T17:45:24.986Z,100649.70
2018-09-06T17:47:53.269Z,100648.43
2018-09-06T17:50:21.439Z,100656.06
2018-09-06T17:52:49.664Z,100651.72
2018-09-06T17:55:17.850Z,100653.25
2018-09-06T17:57:46.061Z,100651.27
2018-09-06T18:00:14.264Z,100649.80
2018-09-06T18:02:42.506Z,100664.56
2018-09-06T18:05:10.717Z,100655.36
2018-09-06T18:07:38.930Z,100649.16
2018-09-06T18:10:07.204Z,100651.52
2018-09-06T18:12:35.433Z,100657.91
2018-09-06T18:15:03.658Z,100657.59
2018-09-06T18:17:31.989Z,100658.93
2018-09-06T18:20:00.202Z,100662.64
2018-09-06T18:22:28.497Z,100663.98
2018-09-06T18:24:56.799Z,100670.39
2018-09-06T18:27:25.027Z,100667.39
2018-09-06T18:29:53.326Z,100673.78
2018-09-06T18:32:21.627Z,100680.17
2018-09-06T18:34:49.943Z,100690.55
2018-09-06T18:37:18.113Z,100693.16
2018-09-06T18:39:46.475Z,100690.16
2018-09-06T18:42:14.665Z,100692.70
2018-09-06T18:44:49.212Z,100693.44
2018-09-06T18:47:17.595Z,100699.12
2018-09-06T18:49:45.813Z,100700.46
2018-09-06T18:52:13.994Z,100698.16
2018-09-06T18:54:42.217Z,100694.50
2018-09-06T18:57:10.418Z,100692.84
2018-09-06T18:59:38.627Z,100699.41
2018-09-06T19:02:06.884Z,100701.31
2018-09-06T19:04:35.015Z,100705.75
2018-09-06T19:07:03.235Z,100706.30
2018-09-06T19:09:31.536Z,100715.23
2018-09-06T19:11:59.767Z,100714.99
2018-09-06T19:14:28.475Z,100708.02
2018-09-06T19:16:56.643Z,100714.90
2018-09-06T19:19:24.947Z,100712.78
2018-09-06T19:21:53.154Z,100718.51
2018-09-06T19:24:21.368Z,100711.19
2018-09-06T19:26:49.543Z,100719.97
2018-09-06T19:29:17.742Z,100725.52
2018-09-06T19:31:46.142Z,100720.52
2018-09-06T19:34:14.279Z,100726.06
2018-09-06T19:36:42.468Z,100730.81
2018-09-06T19:39:12.022Z,100727.52
2018-09-06T19:41:40.174Z,100727.56
2018-09-06T19:44:08.422Z,100732.56
2018-09-06T19:46:36.894Z,100736.66
2018-09-06T19:49:05.229Z,100736.19
2018-09-06T19:51:33.445Z,100732.72
2018-09-06T19:54:01.649Z,100734.42
2018-09-06T19:56:29.844Z,100736.77
2018-09-06T19:58:58.003Z,100750.50
2018-09-06T20:01:26.274Z,100753.86
2018-09-06T20:03:54.478Z,100755.59
2018-09-06T20:06:22.651Z,100761.97
2018-09-06T20:08:50.964Z,100761.82
2018-09-06T20:11:19.159Z,100755.98
2018-09-06T20:13:47.423Z,100756.17
2018-09-06T20:16:15.682Z,100754.69
2018-09-06T20:18:43.863Z,100756.53
2018-09-06T20:21:12.355Z,100763.11
2018-09-06T20:23:40.559Z,100769.48
2018-09-06T20:26:08.802Z,100766.66
2018-09-06T20:28:37.031Z,100769.36
2018-09-06T20:31:05.611Z,100771.06
2018-09-06T20:33:34.050Z,100775.64
2018-09-06T20:36:02.300Z,100774.98
2018-09-06T20:38:30.528Z,100773.33
2018-09-06T20:40:58.696Z,100778.02
2018-09-06T20:43:26.918Z,100774.69
2018-09-06T20:45:55.110Z,100774.03
2018-09-06T20:48:23.523Z,100775.87
2018-09-06T20:50:51.885Z,100777.72
2018-09-06T20:53:20.248Z,100772.04
2018-09-06T20:55:48.707Z,100777.06
2018-09-06T20:58:16.923Z,100783.25
2018-09-06T21:00:45.106Z,100781.26
2018-09-06T21:03:13.417Z,100779.80
2018-09-06T21:05:41.703Z,100775.16
2018-09-06T21:08:09.930Z,100774.66
2018-09-06T21:10:38.270Z,100774.83
2018-09-06T21:13:06.564Z,100770.31
2018-09-06T21:15:35.076Z,100769.48
2018-09-06T21:18:03.488Z,100775.19
2018-09-06T21:20:31.808Z,100772.03
2018-09-06T21:23:00.224Z,100779.25
2018-09-06T21:25:28.587Z,100779.10
2018-09-06T21:27:56.967Z,100781.45
2018-09-06T21:30:25.444Z,100785.46
2018-09-06T21:32:53.741Z,100783.97
2018-09-06T21:35:22.219Z,100782.63
2018-09-06T21:37:50.664Z,100780.94
2018-09-06T21:40:19.072Z,100779.95
2018-09-06T21:42:47.290Z,100787.13
2018-09-06T21:45:15.648Z,100794.67
2018-09-06T21:47:43.996Z,100783.45
2018-09-06T21:50:12.347Z,100792.65
2018-09-06T21:52:40.855Z,100790.65
2018-09-06T21:55:09.239Z,100797.34
2018-09-06T21:57:37.643Z,100798.68
2018-09-06T22:00:06.683Z,100794.81
2018-09-06T22:02:40.320Z,100795.66
2018-09-06T22:05:08.682Z,100794.48
2018-09-06T22:07:37.363Z,100799.69
2018-09-06T22:10:06.026Z,100800.03
2018-09-06T22:12:34.396Z,100800.75
2018-09-06T22:15:02.896Z,100801.09
2018-09-06T22:17:31.091Z,100804.13
2018-09-06T22:19:59.399Z,100803.97
2018-09-06T22:22:27.766Z,100798.45
2018-09-06T22:24:56.136Z,100800.98
2018-09-06T22:27:24.362Z,100796.52
2018-09-06T22:29:52.575Z,100792.84
2018-09-06T22:32:20.939Z,100797.86
2018-09-06T22:34:49.435Z,100793.02
2018-09-06T22:37:17.628Z,100790.52
2018-09-06T22:39:45.816Z,100775.64
2018-09-06T22:42:14.116Z,100773.46
2018-09-06T22:44:42.280Z,100772.80
2018-09-06T22:47:10.500Z,100767.12
2018-09-06T22:49:38.722Z,100765.13
2018-09-06T22:52:06.942Z,100754.43
2018-09-06T22:54:35.132Z,100755.75
2018-09-06T22:57:03.338Z,100757.75
2018-09-06T22:59:31.531Z,100762.59
2018-09-06T23:01:59.995Z,100761.08
2018-09-06T23:04:28.232Z,100764.09
2018-09-06T23:06:56.429Z,100758.41
2018-09-06T23:09:24.603Z,100765.59
2018-09-06T23:11:52.816Z,100773.80
2018-09-06T23:14:21.023Z,100765.44
2018-09-06T23:16:49.240Z,100759.76
2018-09-06T23:19:17.479Z,100758.77
2018-09-06T23:21:45.703Z,100763.79
2018-09-06T23:24:13.945Z,100767.14
2018-09-06T23:26:43.843Z,100766.52
2018-09-06T23:29:12.096Z,100764.84
2018-09-06T23:31:40.370Z,100772.38
2018-09-06T23:34:08.609Z,100770.57
2018-09-06T23:36:36.815Z,100774.80
2018-09-06T23:39:06.694Z,100776.32
2018-09-06T23:41:34.910Z,100773.66
2018-09-06T23:44:03.171Z,100769.19
2018-09-06T23:46:31.402Z,100767.02
2018-09-06T23:48:59.622Z,100767.68
2018-09-06T23:51:27.814Z,100762.97
2018-09-06T23:53:56.028Z,100756.95
2018-09-06T23:56:24.245Z,100763.96
2018-09-06T23:58:52.515Z,100767.62
